Time;durP1;ratioP1;P1;durP2;ratioP2;P2;SDS_P1;SDS_P2;PMS_P1;PMS_P2;Temp;Humidity;BMP_temperature;BMP_pressure;BME280_temperature;BME280_humidity;BME280_pressure;Samples;Min_cycle;Max_cycle;Signal;HPM_P1;HPM_P2
2022/04/21 00:02:43;;;;;;;4.70;3.85;;;;;;;11.16;81.34;100754.25;10211945;29;20567;-79
2022/04/21 00:07:46;;;;;;;6.47;4.25;;;;;;;10.46;81.51;100641.03;10212674;29;20039;-78
2022/04/21 00:12:48;;;;;;;6.35;4.13;;;;;;;11.11;82.02;100740.59;10212232;29;20403;-79
2022/04/21 00:17:49;;;;;;;5.38;4.25;;;;;;;11.33;81.88;100768.41;10212082;29;20138;-78
2022/04/21 00:28:09;;;;;;;6.95;4.00;;;;;;;11.31;82.55;100773.06;10211151;29;20051;-79
2022/04/21 00:33:09;;;;;;;11.38;4.32;;;;;;;10.44;82.52;100632.41;10211422;29;20170;-78
2022/04/21 00:38:10;;;;;;;8.13;5.28;;;;;;;11.15;82.71;100760.53;10215246;29;20055;-79
2022/04/21 00:43:11;;;;;;;11.40;5.97;;;;;;;10.48;82.62;100649.69;10218894;29;20043;-79
2022/04/21 00:48:12;;;;;;;6.28;4.70;;;;;;;11.16;82.87;100738.31;10219306;29;20521;-79
2022/04/21 00:53:13;;;;;;;7.10;5.05;;;;;;;10.36;83.01;100613.78;10202694;29;20075;-78
2022/04/21 00:58:15;;;;;;;8.73;5.60;;;;;;;11.08;83.26;100725.81;10218754;29;20071;-82
2022/04/21 01:03:16;;;;;;;7.68;5.63;;;;;;;10.41;83.38;100621.25;10219167;29;20042;-81
2022/04/21 01:08:17;;;;;;;8.57;5.30;;;;;;;11.14;83.40;100737.63;10218575;29;20059;-81
2022/04/21 01:13:17;;;;;;;6.25;4.93;;;;;;;11.07;83.73;100742.75;10218466;29;20038;-81
2022/04/21 01:18:27;;;;;;;5.85;4.88;;;;;;;10.30;84.49;100624.22;10218610;29;20044;-81
2022/04/21 01:23:28;;;;;;;7.05;4.35;;;;;;;11.00;84.06;100735.56;10218656;29;20068;-81
2022/04/21 01:28:31;;;;;;;7.28;4.95;;;;;;;10.74;83.99;100696.63;10200551;29;20146;-82
2022/04/21 01:33:32;;;;;;;6.82;4.72;;;;;;;10.65;83.77;100682.47;10216880;29;20039;-81
2022/04/21 01:43:52;;;;;;;6.82;4.90;;;;;;;11.00;83.92;100736.41;10216774;29;20052;-81
2022/04/21 01:48:53;;;;;;;7.75;4.95;;;;;;;10.95;83.79;100739.56;10216475;29;20071;-82
2022/04/21 01:53:54;;;;;;;7.35;5.28;;;;;;;10.93;83.84;100741.53;10216227;29;20504;-81
2022/04/21 01:58:54;;;;;;;6.38;4.75;;;;;;;10.26;83.80;100626.31;10216081;29;20047;-81
2022/04/21 02:03:55;;;;;;;7.18;4.60;;;;;;;10.90;83.87;100738.38;10216623;29;20495;-81
2022/04/21 02:08:57;;;;;;;8.50;5.20;;;;;;;10.16;84.10;100620.31;10216414;29;20051;-79
2022/04/21 02:13:58;;;;;;;9.00;5.30;;;;;;;10.17;84.55;100625.47;10215894;29;20059;-82
2022/04/21 02:18:58;;;;;;;9.77;5.47;;;;;;;10.92;84.92;100750.50;10215692;29;20046;-82
2022/04/21 02:23:59;;;;;;;6.60;4.30;;;;;;;10.60;84.42;100689.25;10215881;29;20059;-82
2022/04/21 02:29:00;;;;;;;7.28;4.53;;;;;;;11.00;83.96;100744.38;10198213;29;20491;-82
2022/04/21 02:34:01;;;;;;;7.70;4.70;;;;;;;10.77;83.40;100704.28;10215874;29;20046;-82
2022/04/21 02:39:02;;;;;;;6.60;4.05;;;;;;;11.09;83.15;100755.88;10214849;29;20483;-81
2022/04/21 02:44:03;;;;;;;6.57;4.07;;;;;;;11.10;82.39;100749.59;10214993;29;20492;-81
2022/04/21 02:49:04;;;;;;;6.90;4.45;;;;;;;10.79;81.61;100696.13;10212726;29;20052;-76
2022/04/21 02:59:25;;;;;;;7.68;4.63;;;;;;;11.25;80.99;100750.63;10213658;29;20091;-82
2022/04/21 03:04:26;;;;;;;7.38;3.97;;;;;;;10.59;80.64;100618.50;10214621;29;20047;-82
2022/04/21 03:09:26;;;;;;;6.78;4.50;;;;;;;10.80;81.23;100648.16;10213656;29;20419;-82
2022/04/21 03:14:27;;;;;;;6.70;4.20;;;;;;;11.41;80.97;100733.84;10213804;29;20051;-82
2022/04/21 03:19:28;;;;;;;6.05;4.45;;;;;;;10.70;80.24;100613.72;10213605;29;20040;-81
2022/04/21 03:24:30;;;;;;;6.57;4.68;;;;;;;11.36;79.85;100704.25;10214140;29;20059;-82
2022/04/21 03:29:32;;;;;;;5.63;3.97;;;;;;;11.16;79.68;100643.41;10212510;29;20465;-82
2022/04/21 03:34:32;;;;;;;5.07;3.78;;;;;;;11.85;79.26;100738.91;10212965;29;20083;-82
2022/04/21 03:39:35;;;;;;;8.48;4.45;;;;;;;11.75;78.29;100700.94;10212826;29;20507;-81
2022/04/21 03:44:40;;;;;;;9.00;4.32;;;;;;;12.13;76.55;100731.41;10196311;29;20055;-81
2022/04/21 03:49:41;;;;;;;7.22;5.07;;;;;;;12.18;76.96;100714.94;10212588;29;20071;-81
2022/04/21 03:54:42;;;;;;;11.43;4.75;;;;;;;12.10;76.64;100705.94;10213118;29;20071;-79
2022/04/21 03:59:42;;;;;;;7.55;4.18;;;;;;;12.25;75.87;100687.44;10196738;29;20063;-76
2022/04/21 04:04:43;;;;;;;9.57;4.35;;;;;;;12.67;75.33;100710.28;10212116;29;20447;-74
2022/04/21 04:15:07;;;;;;;6.45;4.25;;;;;;;12.65;72.89;100666.97;10221523;29;20040;-74
2022/04/21 04:20:08;;;;;;;8.63;4.50;;;;;;;13.02;71.88;100654.78;10224832;29;20592;-76
2022/04/21 04:25:10;;;;;;;6.72;4.18;;;;;;;13.76;70.65;100697.81;10224530;29;20047;-75
2022/04/21 04:30:11;;;;;;;13.68;10.23;;;;;;;13.60;68.93;100623.19;10224445;29;20039;-77
2022/04/21 04:35:11;;;;;;;5.88;4.00;;;;;;;13.02;67.01;100503.59;10225731;29;20040;-77
2022/04/21 04:40:13;;;;;;;7.07;4.25;;;;;;;14.05;66.45;100706.88;10224016;29;20495;-76
2022/04/21 04:50:33;;;;;;;10.07;3.83;;;;;;;15.23;63.46;100674.72;10184703;29;20051;-80
2022/04/21 04:55:35;;;;;;;11.60;3.75;;;;;;;15.26;62.41;100706.44;10183422;29;20044;-82
2022/04/21 05:00:36;;;;;;;6.78;3.58;;;;;;;14.02;61.81;100574.50;10184426;29;20492;-81
2022/04/21 05:05:37;;;;;;;6.90;2.60;;;;;;;14.08;60.00;100592.47;10184496;29;20051;-80
2022/04/21 05:10:38;;;;;;;8.13;2.50;;;;;;;13.91;58.52;100573.16;10184316;29;20040;-82
2022/04/21 05:15:39;;;;;;;8.98;3.67;;;;;;;14.03;58.45;100672.34;10184336;29;20058;-81
2022/04/21 05:20:40;;;;;;;6.70;2.72;;;;;;;13.74;58.75;100697.16;10184179;29;20139;-81
2022/04/21 05:25:41;;;;;;;13.13;3.10;;;;;;;13.55;58.94;100690.47;10180146;29;20055;-80
2022/04/21 05:31:01;;;;;;;8.70;2.78;;;;;;;12.97;59.22;100606.47;10177860;29;20134;-81
2022/04/21 05:36:03;;;;;;;5.55;2.92;;;;;;;13.29;57.93;100656.13;10213781;29;20039;-82
2022/04/21 05:41:04;;;;;;;5.40;2.58;;;;;;;13.70;58.54;100696.69;10217389;29;20040;-81
2022/04/21 05:46:06;;;;;;;10.73;2.80;;;;;;;13.45;58.21;100613.28;10216566;29;20495;-80
2022/04/21 05:51:09;;;;;;;4.85;2.22;;;;;;;14.02;58.13;100665.31;10216955;29;20051;-81
2022/04/21 05:56:10;;;;;;;4.97;2.25;;;;;;;14.33;56.87;100662.50;10217830;29;20039;-82
2022/04/21 06:01:11;;;;;;;5.80;2.30;;;;;;;15.04;56.26;100680.66;10216506;29;20040;-81
2022/04/21 06:06:12;;;;;;;8.00;2.40;;;;;;;15.34;55.31;100678.72;10216273;29;20407;-81
2022/04/21 06:11:13;;;;;;;7.43;2.80;;;;;;;14.93;54.69;100577.69;10215567;29;20040;-81
2022/04/21 06:16:14;;;;;;;5.40;2.63;;;;;;;15.65;54.03;100662.31;10216448;29;20050;-81
2022/04/21 06:21:15;;;;;;;6.43;2.30;;;;;;;15.91;53.66;100645.69;10216069;29;20400;-78
2022/04/21 06:26:17;;;;;;;4.65;2.40;;;;;;;16.01;52.88;100653.34;10215047;29;20078;-81
2022/04/21 06:31:17;;;;;;;7.15;2.25;;;;;;;16.22;52.52;100622.97;10215524;29;20075;-81
2022/04/21 06:36:18;;;;;;;4.05;2.13;;;;;;;15.62;52.16;100517.28;10214328;29;20122;-81
2022/04/21 06:41:19;;;;;;;5.82;2.47;;;;;;;16.70;51.66;100643.59;10215935;29;20052;-81
2022/04/21 06:51:40;;;;;;;5.20;2.15;;;;;;;16.49;50.73;100621.25;10214655;29;20075;-79
2022/04/21 06:56:43;;;;;;;7.43;3.67;;;;;;;16.51;51.09;100607.63;10214605;29;20040;-78
2022/04/21 07:01:48;;;;;;;13.50;8.05;;;;;;;16.40;49.89;100505.28;10213835;29;20392;-79
2022/04/21 07:06:48;;;;;;;4.43;2.40;;;;;;;17.25;48.55;100607.63;10213550;29;20055;-80
2022/04/21 07:11:49;;;;;;;7.60;2.95;;;;;;;16.89;48.47;100536.34;10213792;29;20135;-80
2022/04/21 07:16:50;;;;;;;9.02;3.30;;;;;;;17.29;47.80;100535.53;10213154;29;20067;-81
2022/04/21 07:21:51;;;;;;;5.05;1.70;;;;;;;17.32;46.98;100508.31;10196791;29;20134;-80
2022/04/21 07:26:53;;;;;;;3.35;1.58;;;;;;;17.50;46.08;100505.78;10212789;29;20055;-78
2022/04/21 07:31:53;;;;;;;5.15;2.40;;;;;;;17.64;44.92;100501.19;10214218;29;20478;-75
2022/04/21 07:36:54;;;;;;;4.68;1.73;;;;;;;17.40;44.92;100446.31;10213034;29;20047;-78
2022/04/21 07:41:57;;;;;;;9.85;2.30;;;;;;;17.69;44.32;100461.09;10212965;29;20043;-78
2022/04/21 07:46:57;;;;;;;4.95;2.17;;;;;;;18.04;43.65;100447.34;10211529;29;20067;-78
2022/04/21 07:57:18;;;;;;;5.20;1.80;;;;;;;17.79;42.22;100380.06;10212075;29;20122;-78
2022/04/21 08:02:18;;;;;;;3.30;1.30;;;;;;;18.45;42.40;100498.00;10212510;29;20403;-77
2022/04/21 08:07:19;;;;;;;3.08;1.50;;;;;;;18.81;42.30;100474.19;10211664;29;20058;-78
2022/04/21 08:12:20;;;;;;;4.35;1.55;;;;;;;18.49;42.16;100433.84;10212443;29;20123;-76
2022/04/21 08:17:21;;;;;;;4.75;1.90;;;;;;;18.75;41.43;100462.44;10212367;29;20043;-78
2022/04/21 08:22:22;;;;;;;5.50;2.13;;;;;;;18.63;42.02;100475.72;10212889;29;20068;-78
2022/04/21 08:32:45;;;;;;;5.38;2.22;;;;;;;18.15;41.49;100414.38;10211794;29;20048;-78
2022/04/21 08:37:46;;;;;;;12.70;1.85;;;;;;;18.31;41.29;100410.38;10211177;29;20098;-78
2022/04/21 08:42:50;;;;;;;4.38;1.50;;;;;;;18.48;41.05;100416.03;10212215;29;20095;-78
2022/04/21 08:47:58;;;;;;;3.80;1.40;;;;;;;18.54;40.58;100396.34;10211912;29;20511;-77
2022/04/21 08:53:00;;;;;;;4.35;1.60;;;;;;;18.36;40.33;100423.16;10212487;29;20514;-75
2022/04/21 08:58:02;;;;;;;6.93;1.85;;;;;;;18.46;40.08;100392.06;10195207;29;20043;-79
2022/04/21 09:03:07;;;;;;;6.22;1.83;;;;;;;18.24;39.46;100351.25;10218350;29;20044;-77
2022/04/21 09:08:37;;;;;;;7.50;1.60;;;;;;;19.34;39.58;100406.41;10218878;29;20669;-76
2022/04/21 09:13:40;;;;;;;5.60;1.65;;;;;;;18.91;38.85;100374.94;10188371;29;20491;-78
2022/04/21 09:18:46;;;;;;;5.70;1.60;;;;;;;18.27;39.92;100343.78;10217777;29;20106;-76
2022/04/21 09:23:48;;;;;;;6.30;2.50;;;;;;;18.86;39.66;100372.09;10218426;29;20086;-76
2022/04/21 09:28:54;;;;;;;5.55;1.20;;;;;;;19.33;38.55;100386.72;10217494;29;20111;-76
2022/04/21 09:33:55;;;;;;;5.20;1.40;;;;;;;18.52;37.48;100237.03;10218162;29;20048;-76
2022/04/21 09:39:01;;;;;;;3.65;1.08;;;;;;;19.14;36.99;100361.66;10216999;29;20039;-76
2022/04/21 09:49:36;;;;;;;3.35;1.35;;;;;;;19.15;36.79;100343.63;10217028;29;20043;-77
2022/04/21 09:54:39;;;;;;;8.85;1.50;;;;;;;19.09;37.71;100376.84;10216914;29;20040;-76
2022/04/21 09:59:41;;;;;;;5.63;1.33;;;;;;;19.32;38.60;100365.38;10216806;29;20051;-76
2022/04/21 10:04:43;;;;;;;2.97;1.15;;;;;;;19.66;36.94;100352.38;10216749;29;20130;-77
2022/04/21 10:09:45;;;;;;;5.32;1.20;;;;;;;19.47;36.82;100286.88;10216149;29;20079;-78
2022/04/21 10:14:47;;;;;;;4.93;2.00;;;;;;;19.22;35.26;100255.50;10216757;29;20042;-77
2022/04/21 10:19:50;;;;;;;6.70;2.88;;;;;;;19.25;35.74;100257.75;10215395;29;20047;-77
2022/04/21 10:24:56;;;;;;;6.00;1.90;;;;;;;19.41;36.26;100295.88;10215294;29;20181;-77
2022/04/21 10:29:57;;;;;;;9.02;4.68;;;;;;;20.02;36.17;100351.47;10215653;29;20059;-77
2022/04/21 10:34:59;;;;;;;10.75;7.05;;;;;;;20.19;35.65;100346.19;10215281;29;20043;-77
2022/04/21 10:40:15;;;;;;;8.48;1.77;;;;;;;19.43;35.05;100203.00;10214692;29;20043;-76
2022/04/21 10:45:22;;;;;;;2.22;1.10;;;;;;;19.82;34.64;100305.91;10214480;29;20050;-76
2022/04/21 10:50:30;;;;;;;17.40;1.65;;;;;;;20.03;34.87;100315.34;10214770;29;20399;-77
2022/04/21 11:01:09;;;;;;;4.20;1.50;;;;;;;19.51;35.89;100248.47;10214511;29;20043;-77
2022/04/21 11:06:12;;;;;;;9.00;1.30;;;;;;;19.57;36.12;100279.09;10213617;29;20044;-77
2022/04/21 11:11:43;;;;;;;4.10;1.27;;;;;;;20.05;36.30;100303.28;10214248;29;20075;-77
2022/04/21 11:16:45;;;;;;;6.80;1.60;;;;;;;19.93;35.72;100299.72;10213875;29;20603;-77
2022/04/21 11:21:52;;;;;;;4.68;1.17;;;;;;;19.50;35.62;100303.41;10195408;29;20423;-77
2022/04/21 11:27:00;;;;;;;2.70;1.10;;;;;;;20.00;35.92;100295.03;10213599;29;20048;-79
2022/04/21 11:32:02;;;;;;;6.00;1.30;;;;;;;19.95;36.30;100224.84;10213152;29;20052;-78
2022/04/21 11:37:06;;;;;;;2.78;1.00;;;;;;;20.20;35.74;100273.16;10213402;29;20054;-78
2022/04/21 11:42:07;;;;;;;5.95;1.70;;;;;;;20.38;35.45;100269.53;10212420;29;20389;-78
2022/04/21 11:47:08;;;;;;;2.83;1.33;;;;;;;20.03;36.33;100224.47;10212342;29;20035;-76
2022/04/21 11:52:09;;;;;;;71.35;34.70;;;;;;;20.27;35.44;100256.88;10212697;29;20040;-78
2022/04/21 11:57:10;;;;;;;13.32;7.72;;;;;;;20.20;35.14;100248.88;10212768;29;20117;-78
2022/04/21 12:07:32;;;;;;;19.80;8.32;;;;;;;20.04;34.88;100171.38;10213297;29;20074;-78
2022/04/21 12:12:33;;;;;;;86.75;28.70;;;;;;;19.51;34.37;100172.22;10211309;29;20408;-77
2022/04/21 12:17:34;;;;;;;37.75;13.45;;;;;;;20.00;34.75;100249.22;10209861;29;20051;-78
2022/04/21 12:22:35;;;;;;;4.78;2.58;;;;;;;20.22;34.44;100281.84;10210156;29;20055;-79
2022/04/21 12:27:38;;;;;;;77.68;34.53;;;;;;;19.93;33.34;100199.16;10212127;29;20055;-75
2022/04/21 12:32:45;;;;;;;26.47;6.80;;;;;;;20.05;33.73;100243.94;10195060;29;20048;-71
2022/04/21 12:43:16;;;;;;;13.63;6.05;;;;;;;19.56;33.26;100135.47;10193988;29;20044;-75
2022/04/21 12:48:25;;;;;;;25.73;10.80;;;;;;;19.48;31.76;100157.34;10216459;29;20044;-71
2022/04/21 12:53:30;;;;;;;13.07;4.90;;;;;;;18.50;32.96;99994.34;10216758;29;20047;-73
2022/04/21 12:58:31;;;;;;;5.38;1.45;;;;;;;20.05;32.72;100222.38;10218130;29;20130;-71
2022/04/21 13:03:33;;;;;;;6.80;1.20;;;;;;;19.64;33.30;100177.41;10211684;29;20559;-71
2022/04/21 13:08:33;;;;;;;2.75;1.40;;;;;;;18.99;32.78;100096.56;10199538;29;20503;-71
2022/04/21 13:13:36;;;;;;;16.85;3.65;;;;;;;19.98;32.69;100242.41;10180769;29;20040;-74
2022/04/21 13:18:36;;;;;;;7.28;1.90;;;;;;;19.00;32.31;100068.59;10214271;29;20043;-71
2022/04/21 13:23:38;;;;;;;7.28;3.53;;;;;;;19.37;31.93;100155.44;10210960;29;20055;-73
2022/04/21 13:28:39;;;;;;;7.38;2.97;;;;;;;19.90;32.09;100211.22;10204870;29;20049;-71
2022/04/21 13:33:39;;;;;;;24.77;9.95;;;;;;;19.70;31.87;100183.78;10177168;29;20044;-72
2022/04/21 13:38:40;;;;;;;6.28;1.80;;;;;;;19.72;31.89;100238.28;10176991;29;20040;-71
2022/04/21 13:43:41;;;;;;;21.40;9.50;;;;;;;19.56;33.06;100235.16;10206040;29;20039;-71
2022/04/21 13:48:42;;;;;;;9.20;2.15;;;;;;;19.68;31.62;100218.22;10215679;29;20051;-72
2022/04/21 13:53:43;;;;;;;6.72;1.90;;;;;;;19.82;32.30;100249.28;10216410;29;20055;-71
2022/04/21 13:58:43;;;;;;;5.88;1.80;;;;;;;19.29;31.90;100153.88;10216151;29;20058;-72
2022/04/21 14:03:45;;;;;;;5.55;1.40;;;;;;;19.57;31.86;100222.50;10216491;29;20130;-72
2022/04/21 14:08:47;;;;;;;7.10;1.77;;;;;;;19.35;31.11;100208.72;10216764;29;20048;-72
2022/04/21 14:13:48;;;;;;;64.28;16.25;;;;;;;19.34;31.47;100223.22;10215626;29;20583;-71
2022/04/21 14:18:49;;;;;;;16.05;7.28;;;;;;;19.33;31.77;100190.09;10216122;29;20130;-71
2022/04/21 14:23:50;;;;;;;10.50;3.30;;;;;;;19.66;31.63;100252.66;10215787;29;20066;-71
2022/04/21 14:28:50;;;;;;;8.10;3.40;;;;;;;19.67;31.82;100248.91;10215763;29;20047;-72
2022/04/21 14:33:51;;;;;;;16.65;3.28;;;;;;;19.19;32.20;100198.59;10215401;29;20055;-72
2022/04/21 14:44:19;;;;;;;15.35;3.75;;;;;;;18.41;32.30;100154.38;10191996;29;20134;-71
2022/04/21 14:49:20;;;;;;;12.30;2.75;;;;;;;18.91;32.89;100251.13;10214320;29;20131;-71
2022/04/21 14:54:20;;;;;;;12.98;2.78;;;;;;;18.93;32.83;100290.25;10215164;29;20142;-71
2022/04/21 14:59:22;;;;;;;8.93;3.38;;;;;;;18.21;33.40;100184.16;10213816;29;20035;-72
2022/04/21 15:04:24;;;;;;;17.13;4.00;;;;;;;18.65;33.63;100285.31;10213847;29;20043;-72
2022/04/21 15:09:25;;;;;;;11.63;3.65;;;;;;;18.61;33.82;100302.97;10211658;29;20048;-72
2022/04/21 15:14:26;;;;;;;9.45;3.33;;;;;;;18.42;34.70;100302.06;10213113;29;20523;-73
2022/04/21 15:19:26;;;;;;;10.80;3.90;;;;;;;17.86;35.12;100234.91;10213610;29;20040;-70
2022/04/21 15:24:30;;;;;;;47.35;17.10;;;;;;;17.85;35.78;100270.91;10214008;29;20447;-71
2022/04/21 15:29:31;;;;;;;78.55;21.23;;;;;;;17.86;37.01;100305.63;10213375;29;20075;-72
2022/04/21 15:34:32;;;;;;;29.45;6.82;;;;;;;17.60;37.36;100314.63;10213142;29;20053;-71
2022/04/21 15:39:33;;;;;;;54.78;8.85;;;;;;;17.01;38.35;100272.75;10213105;29;20040;-71
2022/04/21 15:44:35;;;;;;;35.13;10.10;;;;;;;16.99;39.47;100305.19;10212790;29;20040;-71
2022/04/21 15:49:36;;;;;;;38.13;8.57;;;;;;;16.46;40.72;100288.34;10212380;29;20199;-71
2022/04/21 15:59:57;;;;;;;433.52;180.48;;;;;;;16.25;42.33;100302.78;10212501;29;20488;-72
2022/04/21 16:04:58;;;;;;;593.00;285.50;;;;;;;16.11;43.08;100286.69;10212336;29;20051;-73
2022/04/21 16:09:59;;;;;;;244.05;92.25;;;;;;;15.82;43.88;100276.34;10211502;29;20518;-73
2022/04/21 16:15:01;;;;;;;74.82;30.45;;;;;;;15.79;44.44;100324.97;10211733;29;20051;-71
2022/04/21 16:20:03;;;;;;;74.78;31.08;;;;;;;15.43;45.29;100302.78;10211884;29;20142;-71
2022/04/21 16:25:05;;;;;;;179.40;63.83;;;;;;;15.21;46.03;100266.47;10192196;29;20424;-75
2022/04/21 16:30:06;;;;;;;103.30;40.00;;;;;;;14.74;46.80;100223.47;10210828;29;20048;-71
2022/04/21 16:35:08;;;;;;;333.98;114.70;;;;;;;15.28;46.80;100297.56;10210472;29;20138;-76
2022/04/21 16:40:09;;;;;;;89.53;26.50;;;;;;;14.61;47.44;100218.06;10211496;29;20047;-75
2022/04/21 16:45:10;;;;;;;57.75;15.82;;;;;;;14.84;46.12;100253.34;10212011;29;20055;-75
2022/04/21 16:50:11;;;;;;;72.22;22.67;;;;;;;15.33;45.40;100313.06;10210440;29;20503;-78
2022/04/21 16:55:11;;;;;;;72.57;21.17;;;;;;;15.05;45.39;100263.13;10207079;29;21054;-79
2022/04/21 17:00:13;;;;;;;40.50;10.15;;;;;;;14.55;45.97;100190.25;10210611;29;20042;-82
2022/04/21 17:05:14;;;;;;;179.68;73.07;;;;;;;15.51;46.35;100340.09;10210784;29;20051;-78
2022/04/21 17:10:16;;;;;;;71.65;25.10;;;;;;;15.14;48.51;100303.91;10209308;29;20530;-81
2022/04/21 17:15:17;;;;;;;46.17;12.95;;;;;;;14.96;48.94;100275.03;10187131;29;20603;-77
2022/04/21 17:20:18;;;;;;;10.88;4.03;;;;;;;14.78;47.05;100254.16;10204478;29;20056;-77
2022/04/21 17:25:21;;;;;;;19.38;4.15;;;;;;;15.01;46.37;100290.47;10193035;29;20130;-81
2022/04/21 17:30:22;;;;;;;22.40;5.05;;;;;;;15.12;46.80;100292.59;10187191;29;20063;-77
2022/04/21 17:35:23;;;;;;;18.65;5.35;;;;;;;14.87;48.20;100262.84;10214821;29;20525;-77
2022/04/21 17:40:25;;;;;;;10.25;2.80;;;;;;;14.07;48.10;100139.41;10217184;29;20051;-78
2022/04/21 17:45:26;;;;;;;9.13;2.08;;;;;;;14.53;46.95;100203.00;10216969;29;20508;-78
2022/04/21 17:50:35;;;;;;;5.47;1.63;;;;;;;14.87;44.54;100224.53;10216484;29;20154;-78
2022/04/21 17:55:35;;;;;;;5.75;1.52;;;;;;;15.15;43.58;100224.47;10217003;29;20555;-78
2022/04/21 18:00:36;;;;;;;4.80;1.17;;;;;;;15.36;42.65;100223.50;10216156;29;20138;-79
2022/04/21 18:05:38;;;;;;;2.92;1.05;;;;;;;15.44;41.57;100213.44;10197943;29;20040;-77
2022/04/21 18:10:39;;;;;;;4.68;1.27;;;;;;;15.77;41.25;100263.56;10216231;29;20062;-77
2022/04/21 18:15:40;;;;;;;7.50;1.85;;;;;;;15.79;41.66;100293.63;10213336;29;20057;-77
2022/04/21 18:20:40;;;;;;;12.32;6.82;;;;;;;15.52;42.34;100220.44;10213637;29;20051;-79
2022/04/21 18:25:41;;;;;;;19.05;11.18;;;;;;;15.64;42.62;100258.16;10214173;29;20051;-78
2022/04/21 18:30:42;;;;;;;17.05;8.80;;;;;;;14.43;43.27;100087.59;10211889;29;20078;-77
2022/04/21 18:35:43;;;;;;;13.75;8.52;;;;;;;15.24;43.98;100221.41;10213294;29;20031;-78
2022/04/21 18:40:44;;;;;;;14.30;8.10;;;;;;;15.35;44.36;100260.16;10213864;29;20082;-79
2022/04/21 18:45:45;;;;;;;18.05;7.40;;;;;;;14.53;44.59;100148.72;10213057;29;20083;-76
2022/04/21 18:50:46;;;;;;;9.25;5.30;;;;;;;14.79;45.60;100214.84;10211404;29;20043;-77
2022/04/21 18:55:46;;;;;;;8.05;3.25;;;;;;;15.12;45.88;100313.16;10213495;29;20538;-77
2022/04/21 19:00:47;;;;;;;9.77;3.20;;;;;;;14.57;46.01;100239.03;10213280;29;20551;-77
2022/04/21 19:05:48;;;;;;;6.72;3.83;;;;;;;14.99;46.28;100338.81;10214823;29;20404;-77
2022/04/21 19:10:49;;;;;;;14.73;2.70;;;;;;;14.73;46.32;100339.47;10214362;29;20040;-77
2022/04/21 19:15:50;;;;;;;12.77;2.47;;;;;;;15.05;46.31;100388.03;10213903;29;20399;-76
2022/04/21 19:20:52;;;;;;;4.20;2.20;;;;;;;15.03;46.52;100377.53;10212810;29;20218;-76
2022/04/21 19:25:54;;;;;;;8.23;2.65;;;;;;;15.02;46.50;100391.13;10212696;29;20533;-76
2022/04/21 19:30:55;;;;;;;6.70;2.00;;;;;;;14.59;47.18;100340.41;10213821;29;20051;-78
2022/04/21 19:35:56;;;;;;;9.77;3.30;;;;;;;14.67;48.42;100395.59;10213165;29;20047;-76
2022/04/21 19:40:56;;;;;;;7.10;3.20;;;;;;;14.07;48.42;100306.84;10210830;29;20062;-75
2022/04/21 19:45:57;;;;;;;18.45;4.15;;;;;;;14.35;47.94;100360.31;10211899;29;20071;-76
2022/04/21 19:50:58;;;;;;;10.60;3.75;;;;;;;14.54;48.67;100442.56;10213023;29;20043;-77
2022/04/21 19:55:59;;;;;;;9.10;3.17;;;;;;;14.47;49.06;100430.94;10213082;29;20115;-77
2022/04/21 20:01:01;;;;;;;43.33;15.13;;;;;;;13.58;49.37;100300.41;10212353;29;20126;-77
2022/04/21 20:11:28;;;;;;;11.27;4.90;;;;;;;13.34;50.99;100298.06;10212334;29;20036;-76
2022/04/21 20:16:32;;;;;;;32.20;9.43;;;;;;;14.21;50.67;100438.69;10212140;29;20051;-77
2022/04/21 20:26:53;;;;;;;104.82;32.05;;;;;;;13.36;51.65;100325.38;10211970;29;20054;-77
2022/04/21 20:31:54;;;;;;;56.15;19.50;;;;;;;13.76;52.30;100400.59;10194605;29;20046;-77
2022/04/21 20:36:55;;;;;;;31.77;9.43;;;;;;;13.97;52.22;100431.84;10212281;29;20043;-77
2022/04/21 20:41:56;;;;;;;22.65;7.55;;;;;;;13.90;52.94;100450.47;10211553;29;20475;-77
2022/04/21 20:46:56;;;;;;;45.33;14.45;;;;;;;12.99;53.22;100303.97;10211740;29;20036;-77
2022/04/21 20:51:58;;;;;;;10.93;4.85;;;;;;;13.10;54.42;100364.03;10211102;29;20062;-77
2022/04/21 20:57:01;;;;;;;39.10;12.27;;;;;;;12.51;55.15;100297.34;10216319;29;20050;-77
2022/04/21 21:02:02;;;;;;;33.50;9.88;;;;;;;12.08;55.46;100247.28;10217840;29;20040;-77
2022/04/21 21:07:17;;;;;;;26.30;8.13;;;;;;;13.01;57.69;100407.75;10219272;29;20447;-77
2022/04/21 21:12:20;;;;;;;16.02;7.32;;;;;;;13.15;56.69;100449.63;10216785;29;20040;-77
2022/04/21 21:17:22;;;;;;;19.27;6.43;;;;;;;12.39;57.47;100341.41;10217867;29;20126;-77
2022/04/21 21:22:23;;;;;;;35.80;6.70;;;;;;;11.87;57.55;100258.59;10216677;29;20055;-77
2022/04/21 21:27:25;;;;;;;40.28;12.52;;;;;;;12.92;57.88;100411.53;10217439;29;20054;-77
2022/04/21 21:32:26;;;;;;;45.80;17.02;;;;;;;13.00;57.75;100420.28;10217954;29;20040;-77
2022/04/21 21:37:27;;;;;;;21.80;10.15;;;;;;;12.62;57.96;100368.81;10217774;29;20043;-78
2022/04/21 21:42:27;;;;;;;19.80;7.13;;;;;;;12.02;58.33;100297.75;10217350;29;20051;-77
2022/04/21 21:47:28;;;;;;;23.05;6.57;;;;;;;12.57;58.93;100441.31;10217483;29;20411;-77
2022/04/21 21:57:52;;;;;;;17.95;4.95;;;;;;;12.14;60.76;100429.47;10217430;29;20039;-77
2022/04/21 22:02:54;;;;;;;8.25;4.55;;;;;;;11.12;61.01;100315.03;10216843;29;20052;-77
2022/04/21 22:07:55;;;;;;;12.45;4.25;;;;;;;11.76;61.30;100424.00;10215432;29;20042;-78
2022/04/21 22:12:59;;;;;;;17.10;4.25;;;;;;;11.50;61.79;100389.69;10199960;29;20050;-77
2022/04/21 22:18:00;;;;;;;9.45;3.60;;;;;;;10.67;61.07;100299.72;10215544;29;20102;-77
2022/04/21 22:23:01;;;;;;;9.57;3.50;;;;;;;11.43;61.97;100457.88;10215788;29;20158;-77
2022/04/21 22:28:02;;;;;;;7.32;3.83;;;;;;;11.56;62.43;100460.81;10215889;29;20405;-78
2022/04/21 22:33:03;;;;;;;8.85;4.35;;;;;;;11.54;62.02;100392.81;10215270;29;20547;-77
2022/04/21 22:38:08;;;;;;;9.85;4.38;;;;;;;11.85;62.35;100430.97;10215251;29;20048;-77
2022/04/21 22:43:09;;;;;;;53.67;15.57;;;;;;;11.73;62.99;100420.84;10215233;29;20515;-77
2022/04/21 22:48:10;;;;;;;73.72;27.13;;;;;;;11.55;63.09;100403.31;10215101;29;20129;-77
2022/04/21 22:53:11;;;;;;;35.03;11.50;;;;;;;11.59;62.81;100427.72;10215168;29;20063;-77
2022/04/21 22:58:12;;;;;;;14.35;6.03;;;;;;;11.24;63.95;100402.41;10214853;29;20106;-77
2022/04/21 23:03:13;;;;;;;14.35;5.38;;;;;;;10.96;63.93;100369.09;10212727;29;20098;-78
2022/04/21 23:08:14;;;;;;;9.43;4.30;;;;;;;10.73;64.69;100353.00;10214010;29;20048;-78
2022/04/21 23:13:30;;;;;;;9.77;3.80;;;;;;;11.08;65.12;100427.22;10213579;29;20415;-78
2022/04/21 23:18:32;;;;;;;11.38;4.00;;;;;;;11.09;66.08;100476.72;10213624;29;20046;-78
2022/04/21 23:23:38;;;;;;;8.02;4.00;;;;;;;10.72;68.19;100452.31;10213879;29;20071;-77
2022/04/21 23:28:39;;;;;;;9.20;4.07;;;;;;;10.56;67.26;100427.56;10213349;29;20051;-78
2022/04/21 23:33:39;;;;;;;10.25;4.07;;;;;;;10.94;67.32;100460.63;10213207;29;20051;-78
2022/04/21 23:38:40;;;;;;;9.15;4.43;;;;;;;10.77;67.30;100425.25;10213073;29;20036;-78
2022/04/21 23:43:41;;;;;;;8.90;4.80;;;;;;;11.02;67.99;100455.28;10212396;29;20048;-78
2022/04/21 23:48:41;;;;;;;13.10;4.53;;;;;;;10.64;68.42;100401.00;10213326;29;20053;-78
2022/04/21 23:53:42;;;;;;;17.08;6.28;;;;;;;10.47;69.16;100387.75;10195736;29;20052;-78
2022/04/21 23:58:43;;;;;;;8.43;4.10;;;;;;;11.10;69.53;100476.56;10212605;29;20074;-78
